sensor_id;sensor_type;location;lat;lon;timestamp;temperature;humidity
39925;DHT22;25592;49.986;11.618;2023-04-03T00:00:21;6.00;99.10
39925;DHT22;25592;49.986;11.618;2023-04-03T00:03:06;6.10;99.10
39925;DHT22;25592;49.986;11.618;2023-04-03T00:05:52;6.10;99.00
39925;DHT22;25592;49.986;11.618;2023-04-03T00:08:38;6.10;99.00
39925;DHT22;25592;49.986;11.618;2023-04-03T00:11:24;6.10;98.80
39925;DHT22;25592;49.986;11.618;2023-04-03T00:14:10;6.10;98.80
39925;DHT22;25592;49.986;11.618;2023-04-03T00:16:55;6.10;98.80
39925;DHT22;25592;49.986;11.618;2023-04-03T00:19:40;6.10;98.80
39925;DHT22;25592;49.986;11.618;2023-04-03T00:22:26;6.20;98.80
39925;DHT22;25592;49.986;11.618;2023-04-03T00:25:13;6.20;98.70
39925;DHT22;25592;49.986;11.618;2023-04-03T00:27:59;6.10;98.70
39925;DHT22;25592;49.986;11.618;2023-04-03T00:30:45;6.20;98.80
39925;DHT22;25592;49.986;11.618;2023-04-03T00:33:30;6.20;98.80
39925;DHT22;25592;49.986;11.618;2023-04-03T00:36:16;6.10;98.80
39925;DHT22;25592;49.986;11.618;2023-04-03T00:39:01;6.20;98.80
39925;DHT22;25592;49.986;11.618;2023-04-03T00:41:46;6.10;98.90
39925;DHT22;25592;49.986;11.618;2023-04-03T00:47:20;6.20;98.90
39925;DHT22;25592;49.986;11.618;2023-04-03T00:50:06;6.20;99.00
39925;DHT22;25592;49.986;11.618;2023-04-03T00:52:52;6.20;98.90
39925;DHT22;25592;49.986;11.618;2023-04-03T00:55:38;6.20;99.00
39925;DHT22;25592;49.986;11.618;2023-04-03T00:58:32;6.20;99.00
39925;DHT22;25592;49.986;11.618;2023-04-03T01:01:21;6.30;99.00
39925;DHT22;25592;49.986;11.618;2023-04-03T01:07:22;6.30;99.10
39925;DHT22;25592;49.986;11.618;2023-04-03T01:10:11;6.30;99.10
39925;DHT22;25592;49.986;11.618;2023-04-03T01:12:59;6.20;99.20
39925;DHT22;25592;49.986;11.618;2023-04-03T01:15:45;6.30;99.10
39925;DHT22;25592;49.986;11.618;2023-04-03T01:18:32;6.30;99.00
39925;DHT22;25592;49.986;11.618;2023-04-03T01:24:38;6.30;99.20
39925;DHT22;25592;49.986;11.618;2023-04-03T01:27:24;6.30;99.20
39925;DHT22;25592;49.986;11.618;2023-04-03T01:30:12;6.30;99.20
39925;DHT22;25592;49.986;11.618;2023-04-03T01:32:59;6.10;99.10
39925;DHT22;25592;49.986;11.618;2023-04-03T01:35:44;6.10;99.30
39925;DHT22;25592;49.986;11.618;2023-04-03T01:38:30;6.10;99.30
39925;DHT22;25592;49.986;11.618;2023-04-03T01:41:16;6.10;99.30
39925;DHT22;25592;49.986;11.618;2023-04-03T01:44:02;6.10;99.30
39925;DHT22;25592;49.986;11.618;2023-04-03T01:46:47;6.10;99.40
39925;DHT22;25592;49.986;11.618;2023-04-03T01:49:32;6.10;99.50
39925;DHT22;25592;49.986;11.618;2023-04-03T01:52:18;6.10;99.50
39925;DHT22;25592;49.986;11.618;2023-04-03T01:55:03;6.10;99.50
39925;DHT22;25592;49.986;11.618;2023-04-03T01:57:49;6.10;99.50
39925;DHT22;25592;49.986;11.618;2023-04-03T02:00:34;6.10;99.50
39925;DHT22;25592;49.986;11.618;2023-04-03T02:03:22;6.00;99.50
39925;DHT22;25592;49.986;11.618;2023-04-03T02:06:07;6.10;99.60
39925;DHT22;25592;49.986;11.618;2023-04-03T02:08:52;6.10;99.60
39925;DHT22;25592;49.986;11.618;2023-04-03T02:11:38;6.10;99.50
39925;DHT22;25592;49.986;11.618;2023-04-03T02:14:23;6.10;99.60
39925;DHT22;25592;49.986;11.618;2023-04-03T02:17:08;6.10;99.50
39925;DHT22;25592;49.986;11.618;2023-04-03T02:19:54;6.10;99.40
39925;DHT22;25592;49.986;11.618;2023-04-03T02:22:39;6.10;99.50
39925;DHT22;25592;49.986;11.618;2023-04-03T02:25:25;6.10;99.40
39925;DHT22;25592;49.986;11.618;2023-04-03T02:28:11;6.10;99.50
39925;DHT22;25592;49.986;11.618;2023-04-03T02:30:56;6.10;99.60
39925;DHT22;25592;49.986;11.618;2023-04-03T02:33:42;6.10;99.50
39925;DHT22;25592;49.986;11.618;2023-04-03T02:36:27;6.10;99.40
39925;DHT22;25592;49.986;11.618;2023-04-03T02:39:15;6.10;99.30
39925;DHT22;25592;49.986;11.618;2023-04-03T02:42:00;6.10;99.40
39925;DHT22;25592;49.986;11.618;2023-04-03T02:44:46;6.10;99.50
39925;DHT22;25592;49.986;11.618;2023-04-03T02:47:31;6.10;99.50
39925;DHT22;25592;49.986;11.618;2023-04-03T02:50:16;6.10;99.50
39925;DHT22;25592;49.986;11.618;2023-04-03T02:53:02;6.10;99.50
39925;DHT22;25592;49.986;11.618;2023-04-03T02:55:47;5.90;99.30
39925;DHT22;25592;49.986;11.618;2023-04-03T02:58:32;5.90;99.50
39925;DHT22;25592;49.986;11.618;2023-04-03T03:01:18;5.90;99.50
39925;DHT22;25592;49.986;11.618;2023-04-03T03:04:04;5.90;99.40
39925;DHT22;25592;49.986;11.618;2023-04-03T03:06:49;5.90;99.50
39925;DHT22;25592;49.986;11.618;2023-04-03T03:09:35;6.00;99.70
39925;DHT22;25592;49.986;11.618;2023-04-03T03:12:21;5.90;99.30
39925;DHT22;25592;49.986;11.618;2023-04-03T03:15:07;5.90;99.40
39925;DHT22;25592;49.986;11.618;2023-04-03T03:17:53;6.00;99.50
39925;DHT22;25592;49.986;11.618;2023-04-03T03:20:38;5.90;99.50
39925;DHT22;25592;49.986;11.618;2023-04-03T03:23:25;5.90;99.30
39925;DHT22;25592;49.986;11.618;2023-04-03T03:26:11;5.90;99.60
39925;DHT22;25592;49.986;11.618;2023-04-03T03:28:56;5.90;99.40
39925;DHT22;25592;49.986;11.618;2023-04-03T03:31:42;5.80;99.40
39925;DHT22;25592;49.986;11.618;2023-04-03T03:34:27;5.90;99.60
39925;DHT22;25592;49.986;11.618;2023-04-03T03:37:12;5.90;99.40
39925;DHT22;25592;49.986;11.618;2023-04-03T03:39:58;5.90;99.40
39925;DHT22;25592;49.986;11.618;2023-04-03T03:42:43;5.90;99.50
39925;DHT22;25592;49.986;11.618;2023-04-03T03:45:29;5.90;99.40
39925;DHT22;25592;49.986;11.618;2023-04-03T03:48:14;5.90;99.40
39925;DHT22;25592;49.986;11.618;2023-04-03T03:51:00;5.90;99.40
39925;DHT22;25592;49.986;11.618;2023-04-03T03:53:45;5.80;99.00
39925;DHT22;25592;49.986;11.618;2023-04-03T03:56:31;5.70;99.10
39925;DHT22;25592;49.986;11.618;2023-04-03T03:59:16;5.70;99.30
39925;DHT22;25592;49.986;11.618;2023-04-03T04:02:01;5.60;99.40
39925;DHT22;25592;49.986;11.618;2023-04-03T04:04:48;5.70;99.30
39925;DHT22;25592;49.986;11.618;2023-04-03T04:07:34;5.70;99.00
39925;DHT22;25592;49.986;11.618;2023-04-03T04:10:19;5.70;99.20
39925;DHT22;25592;49.986;11.618;2023-04-03T04:13:05;5.70;99.10
39925;DHT22;25592;49.986;11.618;2023-04-03T04:15:50;5.60;99.20
39925;DHT22;25592;49.986;11.618;2023-04-03T04:18:35;5.60;98.80
39925;DHT22;25592;49.986;11.618;2023-04-03T04:21:21;5.50;99.10
39925;DHT22;25592;49.986;11.618;2023-04-03T04:24:07;5.40;98.80
39925;DHT22;25592;49.986;11.618;2023-04-03T04:26:53;5.40;99.10
39925;DHT22;25592;49.986;11.618;2023-04-03T04:29:38;5.40;99.00
39925;DHT22;25592;49.986;11.618;2023-04-03T04:32:23;5.40;99.10
39925;DHT22;25592;49.986;11.618;2023-04-03T04:35:09;5.40;99.10
39925;DHT22;25592;49.986;11.618;2023-04-03T04:37:55;5.40;99.00
39925;DHT22;25592;49.986;11.618;2023-04-03T04:40:40;5.40;99.10
39925;DHT22;25592;49.986;11.618;2023-04-03T04:43:26;5.20;99.00
39925;DHT22;25592;49.986;11.618;2023-04-03T04:46:11;5.30;99.30
39925;DHT22;25592;49.986;11.618;2023-04-03T04:48:57;5.30;99.40
39925;DHT22;25592;49.986;11.618;2023-04-03T04:51:42;5.40;99.20
39925;DHT22;25592;49.986;11.618;2023-04-03T04:54:36;5.40;99.00
39925;DHT22;25592;49.986;11.618;2023-04-03T04:57:21;5.30;98.90
39925;DHT22;25592;49.986;11.618;2023-04-03T05:00:07;5.40;99.00
39925;DHT22;25592;49.986;11.618;2023-04-03T05:02:53;5.30;98.70
39925;DHT22;25592;49.986;11.618;2023-04-03T05:05:38;5.30;98.80
39925;DHT22;25592;49.986;11.618;2023-04-03T05:08:25;5.20;99.20
39925;DHT22;25592;49.986;11.618;2023-04-03T05:11:10;5.10;98.90
39925;DHT22;25592;49.986;11.618;2023-04-03T05:13:56;5.20;99.20
39925;DHT22;25592;49.986;11.618;2023-04-03T05:16:41;5.20;98.90
39925;DHT22;25592;49.986;11.618;2023-04-03T05:19:27;5.20;98.70
39925;DHT22;25592;49.986;11.618;2023-04-03T05:22:12;5.20;99.00
39925;DHT22;25592;49.986;11.618;2023-04-03T05:24:58;5.10;98.50
39925;DHT22;25592;49.986;11.618;2023-04-03T05:27:43;5.00;98.50
39925;DHT22;25592;49.986;11.618;2023-04-03T05:30:29;5.00;98.50
39925;DHT22;25592;49.986;11.618;2023-04-03T05:33:14;4.90;98.40
39925;DHT22;25592;49.986;11.618;2023-04-03T05:36:06;5.00;98.70
39925;DHT22;25592;49.986;11.618;2023-04-03T05:38:52;5.10;98.60
39925;DHT22;25592;49.986;11.618;2023-04-03T05:41:38;5.00;98.90
39925;DHT22;25592;49.986;11.618;2023-04-03T05:44:23;5.10;98.50
39925;DHT22;25592;49.986;11.618;2023-04-03T05:47:09;5.10;98.30
39925;DHT22;25592;49.986;11.618;2023-04-03T05:49:54;5.00;98.60
39925;DHT22;25592;49.986;11.618;2023-04-03T05:52:44;5.00;98.90
39925;DHT22;25592;49.986;11.618;2023-04-03T05:55:30;5.00;98.60
39925;DHT22;25592;49.986;11.618;2023-04-03T05:58:16;4.90;98.50
39925;DHT22;25592;49.986;11.618;2023-04-03T06:01:01;4.70;97.90
39925;DHT22;25592;49.986;11.618;2023-04-03T06:03:47;4.70;98.40
39925;DHT22;25592;49.986;11.618;2023-04-03T06:06:50;4.70;98.30
39925;DHT22;25592;49.986;11.618;2023-04-03T06:09:37;4.70;97.70
39925;DHT22;25592;49.986;11.618;2023-04-03T06:12:23;4.60;98.30
39925;DHT22;25592;49.986;11.618;2023-04-03T06:15:08;4.50;98.50
39925;DHT22;25592;49.986;11.618;2023-04-03T06:17:55;4.60;98.70
39925;DHT22;25592;49.986;11.618;2023-04-03T06:20:40;4.60;98.20
39925;DHT22;25592;49.986;11.618;2023-04-03T06:23:25;4.50;98.30
39925;DHT22;25592;49.986;11.618;2023-04-03T06:26:11;4.60;98.40
39925;DHT22;25592;49.986;11.618;2023-04-03T06:28:56;4.70;98.10
39925;DHT22;25592;49.986;11.618;2023-04-03T06:31:42;4.70;98.20
39925;DHT22;25592;49.986;11.618;2023-04-03T06:34:27;4.80;98.20
39925;DHT22;25592;49.986;11.618;2023-04-03T06:37:21;4.70;98.60
39925;DHT22;25592;49.986;11.618;2023-04-03T06:40:09;4.80;98.10
39925;DHT22;25592;49.986;11.618;2023-04-03T06:42:56;4.70;98.00
39925;DHT22;25592;49.986;11.618;2023-04-03T06:45:41;4.70;98.10
39925;DHT22;25592;49.986;11.618;2023-04-03T06:48:27;4.80;98.10
39925;DHT22;25592;49.986;11.618;2023-04-03T06:54:06;4.90;97.90
39925;DHT22;25592;49.986;11.618;2023-04-03T06:56:53;4.80;97.70
39925;DHT22;25592;49.986;11.618;2023-04-03T06:59:38;4.70;97.70
39925;DHT22;25592;49.986;11.618;2023-04-03T07:02:24;4.80;98.20
39925;DHT22;25592;49.986;11.618;2023-04-03T07:05:09;4.70;98.30
39925;DHT22;25592;49.986;11.618;2023-04-03T07:07:55;4.60;98.00
39925;DHT22;25592;49.986;11.618;2023-04-03T07:10:40;4.80;97.90
39925;DHT22;25592;49.986;11.618;2023-04-03T07:13:25;4.90;98.20
39925;DHT22;25592;49.986;11.618;2023-04-03T07:16:11;4.90;97.80
39925;DHT22;25592;49.986;11.618;2023-04-03T07:18:57;4.80;97.80
39925;DHT22;25592;49.986;11.618;2023-04-03T07:21:42;4.80;98.00
39925;DHT22;25592;49.986;11.618;2023-04-03T07:24:28;4.90;97.40
39925;DHT22;25592;49.986;11.618;2023-04-03T07:27:14;4.90;97.50
39925;DHT22;25592;49.986;11.618;2023-04-03T07:29:59;4.90;97.50
39925;DHT22;25592;49.986;11.618;2023-04-03T07:32:45;4.90;97.50
39925;DHT22;25592;49.986;11.618;2023-04-03T07:35:31;5.10;98.30
39925;DHT22;25592;49.986;11.618;2023-04-03T07:38:16;5.00;96.70
39925;DHT22;25592;49.986;11.618;2023-04-03T07:41:03;4.80;96.20
39925;DHT22;25592;49.986;11.618;2023-04-03T07:43:48;4.80;97.40
39925;DHT22;25592;49.986;11.618;2023-04-03T07:46:35;4.80;96.80
39925;DHT22;25592;49.986;11.618;2023-04-03T07:49:20;5.10;97.50
39925;DHT22;25592;49.986;11.618;2023-04-03T07:52:07;5.20;96.80
39925;DHT22;25592;49.986;11.618;2023-04-03T07:54:53;5.10;96.00
39925;DHT22;25592;49.986;11.618;2023-04-03T07:57:39;5.00;97.00
39925;DHT22;25592;49.986;11.618;2023-04-03T08:00:25;5.20;96.60
39925;DHT22;25592;49.986;11.618;2023-04-03T08:03:11;5.10;96.30
39925;DHT22;25592;49.986;11.618;2023-04-03T08:06:03;5.00;96.00
39925;DHT22;25592;49.986;11.618;2023-04-03T08:08:51;5.00;96.10
39925;DHT22;25592;49.986;11.618;2023-04-03T08:11:39;5.00;95.40
39925;DHT22;25592;49.986;11.618;2023-04-03T08:14:24;4.90;95.00
39925;DHT22;25592;49.986;11.618;2023-04-03T08:17:10;5.20;95.60
39925;DHT22;25592;49.986;11.618;2023-04-03T08:19:56;5.00;95.10
39925;DHT22;25592;49.986;11.618;2023-04-03T08:22:42;5.10;95.40
39925;DHT22;25592;49.986;11.618;2023-04-03T08:25:27;5.30;94.50
39925;DHT22;25592;49.986;11.618;2023-04-03T08:28:14;5.40;95.20
39925;DHT22;25592;49.986;11.618;2023-04-03T08:31:05;5.60;96.20
39925;DHT22;25592;49.986;11.618;2023-04-03T08:33:51;5.60;94.10
39925;DHT22;25592;49.986;11.618;2023-04-03T08:36:37;5.60;93.70
39925;DHT22;25592;49.986;11.618;2023-04-03T08:39:22;5.80;95.20
39925;DHT22;25592;49.986;11.618;2023-04-03T08:42:42;6.10;95.50
39925;DHT22;25592;49.986;11.618;2023-04-03T08:45:50;6.20;94.30
39925;DHT22;25592;49.986;11.618;2023-04-03T08:48:39;6.20;93.90
39925;DHT22;25592;49.986;11.618;2023-04-03T08:51:26;6.40;93.50
39925;DHT22;25592;49.986;11.618;2023-04-03T08:54:30;6.30;93.20
39925;DHT22;25592;49.986;11.618;2023-04-03T08:57:39;6.30;93.10
39925;DHT22;25592;49.986;11.618;2023-04-03T09:00:28;6.50;94.50
39925;DHT22;25592;49.986;11.618;2023-04-03T09:03:17;6.90;93.70
39925;DHT22;25592;49.986;11.618;2023-04-03T09:06:16;7.00;93.20
39925;DHT22;25592;49.986;11.618;2023-04-03T09:12:27;6.90;93.20
39925;DHT22;25592;49.986;11.618;2023-04-03T09:15:19;7.20;92.40
39925;DHT22;25592;49.986;11.618;2023-04-03T09:18:44;7.20;92.10
39925;DHT22;25592;49.986;11.618;2023-04-03T09:21:36;7.70;94.90
39925;DHT22;25592;49.986;11.618;2023-04-03T09:24:23;7.80;93.30
39925;DHT22;25592;49.986;11.618;2023-04-03T09:27:10;7.80;92.10
39925;DHT22;25592;49.986;11.618;2023-04-03T09:29:57;7.80;91.40
39925;DHT22;25592;49.986;11.618;2023-04-03T09:32:46;7.60;91.40
39925;DHT22;25592;49.986;11.618;2023-04-03T09:35:37;7.50;90.40
39925;DHT22;25592;49.986;11.618;2023-04-03T09:38:32;7.30;91.30
39925;DHT22;25592;49.986;11.618;2023-04-03T09:41:19;7.20;90.90
39925;DHT22;25592;49.986;11.618;2023-04-03T09:44:21;7.40;91.30
39925;DHT22;25592;49.986;11.618;2023-04-03T09:52:58;8.20;90.10
39925;DHT22;25592;49.986;11.618;2023-04-03T09:55:44;8.50;90.20
39925;DHT22;25592;49.986;11.618;2023-04-03T09:58:37;8.70;90.40
39925;DHT22;25592;49.986;11.618;2023-04-03T10:01:37;8.50;88.40
39925;DHT22;25592;49.986;11.618;2023-04-03T10:04:23;8.60;89.50
39925;DHT22;25592;49.986;11.618;2023-04-03T10:07:29;8.80;89.20
39925;DHT22;25592;49.986;11.618;2023-04-03T10:13:09;8.80;90.20
39925;DHT22;25592;49.986;11.618;2023-04-03T10:16:12;9.10;89.40
39925;DHT22;25592;49.986;11.618;2023-04-03T10:19:35;9.50;88.40
39925;DHT22;25592;49.986;11.618;2023-04-03T10:22:43;9.40;87.70
39925;DHT22;25592;49.986;11.618;2023-04-03T10:25:49;9.50;87.70
39925;DHT22;25592;49.986;11.618;2023-04-03T10:34:46;9.50;84.50
39925;DHT22;25592;49.986;11.618;2023-04-03T10:38:04;9.70;87.10
39925;DHT22;25592;49.986;11.618;2023-04-03T10:47:20;9.70;82.80
39925;DHT22;25592;49.986;11.618;2023-04-03T10:50:36;9.70;80.70
39925;DHT22;25592;49.986;11.618;2023-04-03T10:59:26;9.90;82.10
39925;DHT22;25592;49.986;11.618;2023-04-03T11:02:30;10.20;82.00
39925;DHT22;25592;49.986;11.618;2023-04-03T11:08:38;10.50;82.00
39925;DHT22;25592;49.986;11.618;2023-04-03T11:11:27;10.60;81.60
39925;DHT22;25592;49.986;11.618;2023-04-03T11:23:03;11.40;81.30
39925;DHT22;25592;49.986;11.618;2023-04-03T11:25:53;11.30;81.00
39925;DHT22;25592;49.986;11.618;2023-04-03T11:28:39;11.50;78.50
39925;DHT22;25592;49.986;11.618;2023-04-03T11:32:01;11.50;77.00
39925;DHT22;25592;49.986;11.618;2023-04-03T11:34:51;11.70;77.60
39925;DHT22;25592;49.986;11.618;2023-04-03T11:37:48;11.80;77.50
39925;DHT22;25592;49.986;11.618;2023-04-03T11:40:36;11.90;76.80
39925;DHT22;25592;49.986;11.618;2023-04-03T11:43:28;11.90;75.30
39925;DHT22;25592;49.986;11.618;2023-04-03T11:46:14;11.90;75.70
39925;DHT22;25592;49.986;11.618;2023-04-03T11:49:01;12.00;74.30
39925;DHT22;25592;49.986;11.618;2023-04-03T11:51:47;12.20;75.20
39925;DHT22;25592;49.986;11.618;2023-04-03T11:54:44;12.30;73.30
39925;DHT22;25592;49.986;11.618;2023-04-03T12:09:34;12.50;73.40
39925;DHT22;25592;49.986;11.618;2023-04-03T12:12:35;12.10;73.50
39925;DHT22;25592;49.986;11.618;2023-04-03T12:15:48;12.10;73.70
39925;DHT22;25592;49.986;11.618;2023-04-03T12:22:06;12.40;74.90
39925;DHT22;25592;49.986;11.618;2023-04-03T12:24:53;13.00;77.00
39925;DHT22;25592;49.986;11.618;2023-04-03T12:27:40;13.20;71.80
39925;DHT22;25592;49.986;11.618;2023-04-03T12:30:29;13.30;72.80
39925;DHT22;25592;49.986;11.618;2023-04-03T12:33:38;13.50;72.30
39925;DHT22;25592;49.986;11.618;2023-04-03T12:36:46;13.70;69.50
39925;DHT22;25592;49.986;11.618;2023-04-03T12:39:59;13.80;71.40
39925;DHT22;25592;49.986;11.618;2023-04-03T12:45:56;13.30;68.50
39925;DHT22;25592;49.986;11.618;2023-04-03T12:48:49;13.10;68.60
39925;DHT22;25592;49.986;11.618;2023-04-03T12:51:42;13.40;67.70
39925;DHT22;25592;49.986;11.618;2023-04-03T12:54:36;13.60;69.20
39925;DHT22;25592;49.986;11.618;2023-04-03T12:57:24;13.60;67.10
39925;DHT22;25592;49.986;11.618;2023-04-03T13:00:30;13.60;68.30
39925;DHT22;25592;49.986;11.618;2023-04-03T13:03:23;13.00;67.50
39925;DHT22;25592;49.986;11.618;2023-04-03T13:06:40;13.00;69.10
39925;DHT22;25592;49.986;11.618;2023-04-03T13:09:28;13.10;68.50
39925;DHT22;25592;49.986;11.618;2023-04-03T13:12:15;13.50;68.40
39925;DHT22;25592;49.986;11.618;2023-04-03T13:15:12;13.50;67.80
39925;DHT22;25592;49.986;11.618;2023-04-03T13:17:57;13.00;66.10
39925;DHT22;25592;49.986;11.618;2023-04-03T13:20:43;12.90;68.20
39925;DHT22;25592;49.986;11.618;2023-04-03T13:23:29;13.30;68.00
39925;DHT22;25592;49.986;11.618;2023-04-03T13:26:18;13.40;65.80
39925;DHT22;25592;49.986;11.618;2023-04-03T13:29:06;13.50;65.90
39925;DHT22;25592;49.986;11.618;2023-04-03T13:31:56;13.70;65.40
39925;DHT22;25592;49.986;11.618;2023-04-03T13:34:43;13.00;65.10
39925;DHT22;25592;49.986;11.618;2023-04-03T13:37:33;12.80;65.70
39925;DHT22;25592;49.986;11.618;2023-04-03T13:40:19;12.90;66.50
39925;DHT22;25592;49.986;11.618;2023-04-03T13:43:16;13.30;64.50
39925;DHT22;25592;49.986;11.618;2023-04-03T13:46:25;13.20;64.00
39925;DHT22;25592;49.986;11.618;2023-04-03T13:52:30;13.20;64.40
39925;DHT22;25592;49.986;11.618;2023-04-03T13:55:24;12.80;66.60
39925;DHT22;25592;49.986;11.618;2023-04-03T14:01:07;13.60;64.40
39925;DHT22;25592;49.986;11.618;2023-04-03T14:03:56;13.70;64.30
39925;DHT22;25592;49.986;11.618;2023-04-03T14:06:41;13.90;64.60
39925;DHT22;25592;49.986;11.618;2023-04-03T14:09:27;13.60;64.40
39925;DHT22;25592;49.986;11.618;2023-04-03T14:12:21;13.30;61.90
39925;DHT22;25592;49.986;11.618;2023-04-03T14:15:24;13.30;65.20
39925;DHT22;25592;49.986;11.618;2023-04-03T14:18:13;13.20;62.30
39925;DHT22;25592;49.986;11.618;2023-04-03T14:20:58;13.30;62.50
39925;DHT22;25592;49.986;11.618;2023-04-03T14:23:43;13.20;62.60
39925;DHT22;25592;49.986;11.618;2023-04-03T14:26:29;12.80;63.50
39925;DHT22;25592;49.986;11.618;2023-04-03T14:29:15;12.80;66.20
39925;DHT22;25592;49.986;11.618;2023-04-03T14:32:00;12.80;63.50
39925;DHT22;25592;49.986;11.618;2023-04-03T14:34:59;12.80;75.60
39925;DHT22;25592;49.986;11.618;2023-04-03T14:37:47;13.10;68.10
39925;DHT22;25592;49.986;11.618;2023-04-03T14:40:32;13.30;63.50
39925;DHT22;25592;49.986;11.618;2023-04-03T14:43:18;12.90;62.30
39925;DHT22;25592;49.986;11.618;2023-04-03T14:46:08;12.90;62.50
39925;DHT22;25592;49.986;11.618;2023-04-03T14:48:56;12.80;62.40
39925;DHT22;25592;49.986;11.618;2023-04-03T14:51:41;12.90;63.40
39925;DHT22;25592;49.986;11.618;2023-04-03T14:54:27;13.30;64.00
39925;DHT22;25592;49.986;11.618;2023-04-03T14:57:15;13.50;62.90
39925;DHT22;25592;49.986;11.618;2023-04-03T15:00:01;13.10;64.60
39925;DHT22;25592;49.986;11.618;2023-04-03T15:02:49;13.30;65.30
39925;DHT22;25592;49.986;11.618;2023-04-03T15:05:35;13.50;63.40
39925;DHT22;25592;49.986;11.618;2023-04-03T15:08:26;13.60;63.90
39925;DHT22;25592;49.986;11.618;2023-04-03T15:11:14;14.10;63.00
39925;DHT22;25592;49.986;11.618;2023-04-03T15:14:00;14.10;63.10
39925;DHT22;25592;49.986;11.618;2023-04-03T15:16:45;14.20;66.10
39925;DHT22;25592;49.986;11.618;2023-04-03T15:19:40;14.20;63.40
39925;DHT22;25592;49.986;11.618;2023-04-03T15:22:26;13.80;59.80
39925;DHT22;25592;49.986;11.618;2023-04-03T15:25:11;13.70;61.20
39925;DHT22;25592;49.986;11.618;2023-04-03T15:27:57;13.60;61.90
39925;DHT22;25592;49.986;11.618;2023-04-03T15:30:42;13.20;60.80
39925;DHT22;25592;49.986;11.618;2023-04-03T15:33:28;13.10;61.00
39925;DHT22;25592;49.986;11.618;2023-04-03T15:36:13;13.00;62.20
39925;DHT22;25592;49.986;11.618;2023-04-03T15:39:17;12.90;58.90
39925;DHT22;25592;49.986;11.618;2023-04-03T15:42:03;12.50;58.80
39925;DHT22;25592;49.986;11.618;2023-04-03T15:44:51;12.10;63.70
39925;DHT22;25592;49.986;11.618;2023-04-03T15:47:37;12.40;63.30
39925;DHT22;25592;49.986;11.618;2023-04-03T15:50:23;12.70;62.70
39925;DHT22;25592;49.986;11.618;2023-04-03T15:53:09;12.70;61.50
39925;DHT22;25592;49.986;11.618;2023-04-03T15:55:54;12.20;62.20
39925;DHT22;25592;49.986;11.618;2023-04-03T15:58:40;12.10;61.10
39925;DHT22;25592;49.986;11.618;2023-04-03T16:01:25;12.00;61.20
39925;DHT22;25592;49.986;11.618;2023-04-03T16:04:11;12.00;62.20
39925;DHT22;25592;49.986;11.618;2023-04-03T16:07:01;12.20;64.30
39925;DHT22;25592;49.986;11.618;2023-04-03T16:09:47;11.90;64.40
39925;DHT22;25592;49.986;11.618;2023-04-03T16:12:33;11.40;60.10
39925;DHT22;25592;49.986;11.618;2023-04-03T16:15:18;11.30;63.80
39925;DHT22;25592;49.986;11.618;2023-04-03T16:18:04;11.10;61.70
39925;DHT22;25592;49.986;11.618;2023-04-03T16:20:50;10.70;62.50
39925;DHT22;25592;49.986;11.618;2023-04-03T16:23:36;10.60;64.30
39925;DHT22;25592;49.986;11.618;2023-04-03T16:26:21;10.60;63.00
39925;DHT22;25592;49.986;11.618;2023-04-03T16:29:07;10.50;63.50
39925;DHT22;25592;49.986;11.618;2023-04-03T16:31:52;10.30;63.40
39925;DHT22;25592;49.986;11.618;2023-04-03T16:34:38;10.00;62.20
39925;DHT22;25592;49.986;11.618;2023-04-03T16:37:26;9.90;65.50
39925;DHT22;25592;49.986;11.618;2023-04-03T16:40:13;9.80;63.00
39925;DHT22;25592;49.986;11.618;2023-04-03T16:43:00;9.60;65.00
39925;DHT22;25592;49.986;11.618;2023-04-03T16:45:46;9.60;64.70
39925;DHT22;25592;49.986;11.618;2023-04-03T16:48:31;9.40;64.10
39925;DHT22;25592;49.986;11.618;2023-04-03T16:51:17;9.20;62.80
39925;DHT22;25592;49.986;11.618;2023-04-03T16:54:02;8.90;63.10
39925;DHT22;25592;49.986;11.618;2023-04-03T16:56:47;8.70;63.20
39925;DHT22;25592;49.986;11.618;2023-04-03T16:59:33;8.70;64.40
39925;DHT22;25592;49.986;11.618;2023-04-03T17:02:22;8.60;64.80
39925;DHT22;25592;49.986;11.618;2023-04-03T17:05:09;8.40;63.90
39925;DHT22;25592;49.986;11.618;2023-04-03T17:07:55;8.50;65.70
39925;DHT22;25592;49.986;11.618;2023-04-03T17:10:40;8.70;64.70
39925;DHT22;25592;49.986;11.618;2023-04-03T17:13:26;8.60;64.70
39925;DHT22;25592;49.986;11.618;2023-04-03T17:16:16;8.50;67.00
39925;DHT22;25592;49.986;11.618;2023-04-03T17:19:02;8.30;65.00
39925;DHT22;25592;49.986;11.618;2023-04-03T17:21:48;8.30;63.30
39925;DHT22;25592;49.986;11.618;2023-04-03T17:24:34;8.30;64.90
39925;DHT22;25592;49.986;11.618;2023-04-03T17:27:19;8.40;64.00
39925;DHT22;25592;49.986;11.618;2023-04-03T17:30:05;8.60;64.90
39925;DHT22;25592;49.986;11.618;2023-04-03T17:32:50;8.60;65.50
39925;DHT22;25592;49.986;11.618;2023-04-03T17:35:36;8.60;66.90
39925;DHT22;25592;49.986;11.618;2023-04-03T17:38:21;8.50;68.30
39925;DHT22;25592;49.986;11.618;2023-04-03T17:41:07;8.50;66.20
39925;DHT22;25592;49.986;11.618;2023-04-03T17:43:57;8.20;66.20
39925;DHT22;25592;49.986;11.618;2023-04-03T17:46:42;8.20;67.10
39925;DHT22;25592;49.986;11.618;2023-04-03T17:49:28;8.00;64.50
39925;DHT22;25592;49.986;11.618;2023-04-03T17:52:13;8.10;66.90
39925;DHT22;25592;49.986;11.618;2023-04-03T17:54:59;8.00;64.70
39925;DHT22;25592;49.986;11.618;2023-04-03T17:57:44;8.00;65.30
39925;DHT22;25592;49.986;11.618;2023-04-03T18:00:29;7.90;64.90
39925;DHT22;25592;49.986;11.618;2023-04-03T18:03:15;7.90;66.90
39925;DHT22;25592;49.986;11.618;2023-04-03T18:06:13;8.00;66.40
39925;DHT22;25592;49.986;11.618;2023-04-03T18:09:09;8.10;67.20
39925;DHT22;25592;49.986;11.618;2023-04-03T18:11:56;8.10;66.10
39925;DHT22;25592;49.986;11.618;2023-04-03T18:14:41;8.10;66.30
39925;DHT22;25592;49.986;11.618;2023-04-03T18:17:27;7.90;65.90
39925;DHT22;25592;49.986;11.618;2023-04-03T18:20:13;7.80;66.70
39925;DHT22;25592;49.986;11.618;2023-04-03T18:23:00;7.70;66.00
39925;DHT22;25592;49.986;11.618;2023-04-03T18:25:45;7.80;66.80
39925;DHT22;25592;49.986;11.618;2023-04-03T18:28:30;7.90;69.50
39925;DHT22;25592;49.986;11.618;2023-04-03T18:31:17;7.90;66.80
39925;DHT22;25592;49.986;11.618;2023-04-03T18:34:04;8.00;66.80
39925;DHT22;25592;49.986;11.618;2023-04-03T18:36:50;8.00;66.40
39925;DHT22;25592;49.986;11.618;2023-04-03T18:39:36;7.90;66.30
39925;DHT22;25592;49.986;11.618;2023-04-03T18:42:24;7.90;66.60
39925;DHT22;25592;49.986;11.618;2023-04-03T18:45:11;7.90;66.00
39925;DHT22;25592;49.986;11.618;2023-04-03T18:47:57;7.70;68.70
39925;DHT22;25592;49.986;11.618;2023-04-03T18:50:43;7.80;67.00
39925;DHT22;25592;49.986;11.618;2023-04-03T18:53:29;7.70;66.70
39925;DHT22;25592;49.986;11.618;2023-04-03T18:56:14;7.70;67.80
39925;DHT22;25592;49.986;11.618;2023-04-03T18:59:00;7.50;67.50